createdAt,value
2022-08-07T00:00:39.915Z,1.50
2022-08-07T00:03:08.795Z,1.90
2022-08-07T00:05:37.328Z,1.65
2022-08-07T00:08:07.819Z,1.83
2022-08-07T00:10:47.925Z,1.50
2022-08-07T00:13:23.764Z,1.35
2022-08-07T00:15:54.894Z,1.65
2022-08-07T00:18:27.609Z,1.42
2022-08-07T00:20:57.604Z,1.40
2022-08-07T00:23:30.729Z,1.63
2022-08-07T00:26:12.883Z,1.60
2022-08-07T00:28:46.036Z,1.70
2022-08-07T00:31:37.672Z,1.80
2022-08-07T00:34:09.585Z,1.50
2022-08-07T00:36:43.065Z,1.70
2022-08-07T00:39:16.913Z,1.40
2022-08-07T00:41:53.541Z,1.80
2022-08-07T00:44:29.494Z,1.65
2022-08-07T00:46:57.397Z,1.80
2022-08-07T00:50:19.309Z,1.67
2022-08-07T00:52:20.154Z,1.50
2022-08-07T00:54:53.833Z,1.60
2022-08-07T00:57:25.921Z,1.60
2022-08-07T00:59:55.051Z,1.58
2022-08-07T01:02:28.326Z,1.88
2022-08-07T01:04:58.580Z,1.60
2022-08-07T01:07:29.392Z,1.58
2022-08-07T01:10:06.144Z,1.70
2022-08-07T01:12:44.771Z,1.67
2022-08-07T01:15:36.103Z,1.52
2022-08-07T01:18:17.026Z,1.55
2022-08-07T01:20:57.533Z,1.48
2022-08-07T01:23:35.471Z,1.40
2022-08-07T01:26:12.148Z,1.42
2022-08-07T01:28:46.293Z,1.30
2022-08-07T01:31:21.827Z,1.80
2022-08-07T01:33:55.383Z,1.55
2022-08-07T01:36:33.448Z,1.35
2022-08-07T01:39:10.015Z,1.35
2022-08-07T01:42:07.623Z,1.30
2022-08-07T01:44:32.600Z,1.55
2022-08-07T01:48:16.876Z,1.42
2022-08-07T01:49:54.661Z,1.35
2022-08-07T01:52:27.155Z,1.50
2022-08-07T01:54:58.903Z,1.63
2022-08-07T01:58:01.579Z,1.70
2022-08-07T02:00:28.676Z,1.58
2022-08-07T02:03:11.929Z,1.67
2022-08-07T02:05:59.605Z,1.77
2022-08-07T02:08:31.668Z,1.90
2022-08-07T02:11:03.727Z,1.48
2022-08-07T02:13:57.393Z,1.40
2022-08-07T02:16:28.594Z,1.83
2022-08-07T02:19:05.306Z,1.30
2022-08-07T02:21:55.402Z,1.30
2022-08-07T02:24:24.615Z,1.50
2022-08-07T02:26:54.673Z,1.63
2022-08-07T02:29:22.904Z,1.30
2022-08-07T02:31:54.693Z,1.40
2022-08-07T02:34:22.608Z,1.42
2022-08-07T02:36:55.902Z,1.60
2022-08-07T02:39:43.802Z,1.50
2022-08-07T02:42:19.889Z,1.58
2022-08-07T02:44:53.318Z,1.30
2022-08-07T02:47:24.126Z,1.20
2022-08-07T02:50:04.872Z,1.30
2022-08-07T02:52:40.532Z,1.60
2022-08-07T02:55:28.717Z,1.50
2022-08-07T02:58:12.584Z,1.20
2022-08-07T03:00:46.685Z,1.30
2022-08-07T03:03:22.700Z,1.55
2022-08-07T03:05:54.417Z,1.50
2022-08-07T03:08:27.008Z,1.43
2022-08-07T03:11:01.129Z,1.42
2022-08-07T03:13:39.155Z,1.40
2022-08-07T03:16:18.617Z,1.20
2022-08-07T03:18:53.204Z,1.27
2022-08-07T03:21:23.698Z,1.30
2022-08-07T03:24:17.989Z,1.10
2022-08-07T03:26:54.620Z,1.10
2022-08-07T03:29:30.744Z,1.20
2022-08-07T03:32:04.037Z,1.02
2022-08-07T03:34:39.448Z,1.10
2022-08-07T03:37:17.785Z,1.10
2022-08-07T03:40:15.063Z,1.50
2022-08-07T03:42:38.967Z,1.25
2022-08-07T03:45:12.130Z,1.08
2022-08-07T03:48:02.654Z,1.30
2022-08-07T03:50:32.576Z,1.60
2022-08-07T03:53:04.213Z,1.20
2022-08-07T03:55:53.328Z,1.65
2022-08-07T03:59:07.334Z,1.40
2022-08-07T04:01:15.563Z,1.67
2022-08-07T04:03:53.255Z,1.60
2022-08-07T04:06:37.364Z,1.52
2022-08-07T04:09:15.390Z,1.33
2022-08-07T04:12:23.396Z,1.20
2022-08-07T04:14:43.528Z,1.20
2022-08-07T04:18:31.274Z,1.40
2022-08-07T04:20:06.127Z,1.20
2022-08-07T04:22:38.188Z,1.80
2022-08-07T04:25:08.705Z,1.40
2022-08-07T04:27:44.165Z,1.40
2022-08-07T04:30:21.369Z,1.27
2022-08-07T04:33:15.425Z,1.37
2022-08-07T04:35:50.178Z,1.70
2022-08-07T04:38:20.511Z,1.60
2022-08-07T04:40:52.970Z,1.33
2022-08-07T04:44:10.392Z,1.58
2022-08-07T04:46:34.858Z,1.50
2022-08-07T04:49:17.585Z,1.50
2022-08-07T04:51:55.991Z,1.40
2022-08-07T04:54:32.118Z,1.30
2022-08-07T04:58:16.966Z,1.60
2022-08-07T05:00:12.490Z,1.35
2022-08-07T05:02:56.957Z,1.25
2022-08-07T05:05:53.947Z,1.50
2022-08-07T05:08:59.199Z,1.50
2022-08-07T05:11:19.210Z,1.40
2022-08-07T05:14:54.218Z,1.52
2022-08-07T05:16:47.490Z,1.95
2022-08-07T05:19:32.643Z,2.30
2022-08-07T05:22:05.595Z,2.93
2022-08-07T05:24:40.841Z,2.85
2022-08-07T05:27:14.509Z,3.08
2022-08-07T05:30:04.781Z,3.70
2022-08-07T05:32:33.912Z,3.70
2022-08-07T05:35:04.156Z,2.85
2022-08-07T05:37:40.876Z,2.00
2022-08-07T05:40:18.234Z,2.25
2022-08-07T05:42:56.037Z,1.85
2022-08-07T05:45:47.739Z,1.67
2022-08-07T05:48:16.602Z,1.45
2022-08-07T05:50:47.432Z,1.55
2022-08-07T05:54:09.581Z,1.75
2022-08-07T05:56:12.370Z,2.10
2022-08-07T05:58:49.160Z,1.40
2022-08-07T06:01:24.663Z,1.40
2022-08-07T06:04:00.881Z,1.52
2022-08-07T06:06:37.242Z,1.67
2022-08-07T06:09:10.952Z,1.38
2022-08-07T06:11:45.316Z,1.40
2022-08-07T06:14:21.330Z,1.02
2022-08-07T06:16:59.513Z,1.10
2022-08-07T06:19:52.334Z,1.20
2022-08-07T06:22:27.251Z,1.00
2022-08-07T06:25:12.498Z,0.70
2022-08-07T06:27:44.361Z,1.33
2022-08-07T06:30:35.290Z,1.13
2022-08-07T06:33:09.922Z,1.00
2022-08-07T06:35:47.662Z,0.90
2022-08-07T06:38:33.219Z,1.08
2022-08-07T06:41:09.725Z,1.10
2022-08-07T06:43:46.674Z,0.95
2022-08-07T06:46:35.364Z,1.02
2022-08-07T06:49:05.166Z,0.85
2022-08-07T06:51:49.557Z,1.35
2022-08-07T06:55:31.842Z,1.10
2022-08-07T06:57:13.493Z,0.90
2022-08-07T07:00:13.503Z,1.00
2022-08-07T07:02:48.905Z,0.90
2022-08-07T07:06:03.163Z,1.05
2022-08-07T07:08:18.457Z,0.77
2022-08-07T07:10:56.944Z,0.80
2022-08-07T07:13:55.508Z,0.80
2022-08-07T07:16:30.499Z,0.90
2022-08-07T07:19:40.914Z,0.90
2022-08-07T07:22:04.939Z,0.70
2022-08-07T07:24:43.202Z,0.90
2022-08-07T07:27:35.684Z,0.60
2022-08-07T07:30:32.374Z,1.40
2022-08-07T07:33:07.775Z,1.35
2022-08-07T07:35:51.860Z,0.88
2022-08-07T07:38:26.007Z,2.03
2022-08-07T07:41:01.906Z,1.98
2022-08-07T07:44:14.244Z,2.13
2022-08-07T07:46:40.289Z,2.10
2022-08-07T07:50:35.274Z,1.70
2022-08-07T07:52:06.043Z,1.90
2022-08-07T07:54:36.796Z,1.80
2022-08-07T07:57:06.433Z,2.20
2022-08-07T07:59:52.799Z,2.30
2022-08-07T08:02:35.244Z,2.22
2022-08-07T08:05:11.428Z,2.50
2022-08-07T08:07:51.594Z,2.83
2022-08-07T08:10:38.157Z,2.00
2022-08-07T08:13:10.334Z,2.58
2022-08-07T08:15:57.966Z,2.22
2022-08-07T08:18:30.499Z,2.10
2022-08-07T08:21:01.249Z,1.90
2022-08-07T08:23:47.501Z,2.10
2022-08-07T08:26:32.006Z,1.65
2022-08-07T08:29:02.209Z,1.80
2022-08-07T08:32:10.225Z,1.60
2022-08-07T08:34:35.976Z,1.58
2022-08-07T08:37:09.772Z,1.80
2022-08-07T08:39:58.661Z,1.50
2022-08-07T08:42:32.938Z,1.60
2022-08-07T08:45:13.201Z,1.52
2022-08-07T08:47:47.333Z,1.45
2022-08-07T08:50:34.899Z,1.70
2022-08-07T08:53:14.388Z,1.58
2022-08-07T08:55:54.848Z,1.85
2022-08-07T08:58:35.048Z,1.90
2022-08-07T09:01:15.928Z,1.55
2022-08-07T09:03:55.253Z,1.30
2022-08-07T09:06:37.482Z,1.27
2022-08-07T09:09:29.823Z,1.33
2022-08-07T09:12:31.312Z,1.10
2022-08-07T09:16:22.757Z,0.90
2022-08-07T09:18:11.457Z,1.00
2022-08-07T09:20:58.157Z,0.80
2022-08-07T09:24:33.627Z,0.77
2022-08-07T09:26:37.141Z,0.80
2022-08-07T09:30:00.909Z,0.88
2022-08-07T09:32:17.212Z,0.80
2022-08-07T09:34:56.035Z,0.90
2022-08-07T09:37:47.709Z,0.93
2022-08-07T09:40:25.562Z,0.70
2022-08-07T09:43:01.500Z,0.70
2022-08-07T09:47:24.222Z,0.88
2022-08-07T09:49:02.623Z,0.88
2022-08-07T09:52:10.659Z,0.70
2022-08-07T09:54:41.261Z,0.68
2022-08-07T09:57:36.763Z,0.63
2022-08-07T10:00:14.422Z,0.68
2022-08-07T10:04:03.830Z,0.65
2022-08-07T10:06:29.979Z,0.63
2022-08-07T10:09:34.169Z,0.50
2022-08-07T10:12:26.412Z,0.60
2022-08-07T10:15:22.998Z,0.80
2022-08-07T10:18:22.102Z,0.90
2022-08-07T10:21:19.794Z,0.90
2022-08-07T10:24:10.164Z,0.70
2022-08-07T10:26:53.516Z,0.73
2022-08-07T10:29:51.747Z,0.52
2022-08-07T10:32:53.568Z,0.50
2022-08-07T10:35:55.783Z,0.70
2022-08-07T10:38:48.636Z,0.75
2022-08-07T10:41:47.508Z,0.60
2022-08-07T10:44:19.395Z,0.82
2022-08-07T10:47:11.825Z,0.80
2022-08-07T10:49:51.206Z,0.60
2022-08-07T10:52:33.601Z,0.60
2022-08-07T10:55:32.650Z,0.82
2022-08-07T10:58:14.554Z,0.80
2022-08-07T11:00:56.292Z,0.40
2022-08-07T11:03:37.898Z,0.60
2022-08-07T11:06:26.802Z,0.45
2022-08-07T11:09:01.342Z,0.50
2022-08-07T11:11:35.683Z,0.45
2022-08-07T11:14:46.242Z,0.60
2022-08-07T11:17:02.353Z,0.80
2022-08-07T11:19:41.174Z,0.50
2022-08-07T11:22:26.500Z,0.57
2022-08-07T11:25:07.451Z,0.52
2022-08-07T11:28:03.222Z,0.90
2022-08-07T11:30:46.702Z,0.45
2022-08-07T11:33:58.714Z,0.50
2022-08-07T11:36:32.416Z,1.00
2022-08-07T11:39:14.481Z,0.60
2022-08-07T11:42:02.259Z,0.77
2022-08-07T11:44:58.023Z,0.80
2022-08-07T11:47:55.940Z,0.70
2022-08-07T11:50:44.606Z,0.63
2022-08-07T11:53:43.276Z,0.60
2022-08-07T11:56:43.306Z,1.30
2022-08-07T12:00:12.270Z,1.00
2022-08-07T12:02:53.656Z,0.57
2022-08-07T12:05:47.189Z,0.70
2022-08-07T12:08:31.743Z,0.70
2022-08-07T12:11:21.574Z,0.70
2022-08-07T12:13:56.984Z,0.80
2022-08-07T12:16:30.699Z,0.90
2022-08-07T12:19:14.839Z,1.60
2022-08-07T12:22:39.633Z,0.98
2022-08-07T12:26:00.236Z,0.90
2022-08-07T12:28:09.396Z,1.70
2022-08-07T12:30:46.715Z,1.45
2022-08-07T12:33:28.053Z,1.20
2022-08-07T12:35:58.458Z,0.98
2022-08-07T12:38:42.560Z,0.60
2022-08-07T12:41:12.587Z,1.00
2022-08-07T12:44:04.465Z,1.45
2022-08-07T12:46:46.084Z,0.88
2022-08-07T12:49:39.419Z,0.80
2022-08-07T12:52:17.885Z,0.73
2022-08-07T12:55:01.518Z,0.52
2022-08-07T12:58:40.419Z,0.50
2022-08-07T13:01:28.214Z,0.68
2022-08-07T13:04:31.838Z,0.60
2022-08-07T13:08:14.391Z,1.25
2022-08-07T13:10:39.470Z,0.60
2022-08-07T13:13:46.995Z,0.77
2022-08-07T13:16:27.619Z,0.93
2022-08-07T13:19:21.638Z,0.30
2022-08-07T13:22:19.432Z,0.80
2022-08-07T13:25:00.192Z,0.80
2022-08-07T13:28:12.413Z,0.70
2022-08-07T13:30:39.895Z,0.70
2022-08-07T13:34:31.620Z,0.80
2022-08-07T13:36:17.687Z,1.10
2022-08-07T13:38:54.557Z,1.05
2022-08-07T13:41:30.191Z,0.70
2022-08-07T13:44:02.725Z,0.85
2022-08-07T13:46:49.614Z,0.88
2022-08-07T13:50:34.581Z,0.50
2022-08-07T13:52:30.749Z,0.60
2022-08-07T13:55:00.741Z,0.50
2022-08-07T13:57:38.020Z,0.77
2022-08-07T14:00:13.357Z,0.60
2022-08-07T14:02:58.864Z,1.00
2022-08-07T14:05:37.373Z,2.58
2022-08-07T14:08:09.064Z,0.73
2022-08-07T14:10:42.338Z,0.70
2022-08-07T14:13:17.958Z,1.02
2022-08-07T14:15:54.324Z,0.70
2022-08-07T14:18:33.200Z,0.60
2022-08-07T14:21:20.698Z,0.98
2022-08-07T14:24:00.023Z,1.25
2022-08-07T14:26:36.351Z,0.60
2022-08-07T14:30:03.045Z,0.70
2022-08-07T14:31:58.054Z,0.40
2022-08-07T14:34:30.280Z,0.70
2022-08-07T14:37:01.960Z,0.90
2022-08-07T14:40:17.071Z,0.75
2022-08-07T14:42:25.970Z,0.90
2022-08-07T14:44:59.808Z,0.82
2022-08-07T14:50:23.748Z,0.80
2022-08-07T14:52:55.427Z,0.60
2022-08-07T14:55:28.697Z,0.65
2022-08-07T14:58:01.087Z,0.80
2022-08-07T15:00:34.881Z,0.85
2022-08-07T15:06:04.270Z,0.88
2022-08-07T15:08:47.625Z,0.90
2022-08-07T15:11:53.999Z,0.60
2022-08-07T15:14:17.523Z,3.40
2022-08-07T15:16:55.002Z,0.95
2022-08-07T15:20:31.082Z,0.60
2022-08-07T15:22:29.195Z,0.70
2022-08-07T15:28:30.822Z,0.47
2022-08-07T15:37:02.747Z,1.02
2022-08-07T15:39:17.623Z,0.90
2022-08-07T15:42:46.003Z,0.60
2022-08-07T15:44:52.709Z,0.63
2022-08-07T15:48:00.749Z,1.05
2022-08-07T15:50:37.754Z,0.90
2022-08-07T15:53:11.604Z,0.80
2022-08-07T15:55:53.873Z,0.70
2022-08-07T15:58:38.238Z,0.63
2022-08-07T16:01:08.406Z,0.60
2022-08-07T16:03:47.271Z,0.70
2022-08-07T16:06:30.841Z,0.80
2022-08-07T16:09:07.769Z,0.70
2022-08-07T16:11:55.795Z,0.50
2022-08-07T16:14:44.910Z,0.82
2022-08-07T16:18:02.337Z,0.90
2022-08-07T16:20:38.760Z,0.80
2022-08-07T16:23:54.646Z,0.60
2022-08-07T16:26:31.291Z,0.90
2022-08-07T16:29:18.774Z,0.80
2022-08-07T16:32:04.922Z,1.00
2022-08-07T16:34:45.491Z,1.90
2022-08-07T16:38:05.786Z,1.20
2022-08-07T16:41:02.205Z,0.60
2022-08-07T16:44:05.973Z,0.90
2022-08-07T16:47:06.747Z,0.85
2022-08-07T16:50:20.741Z,1.00
2022-08-07T16:54:01.693Z,1.00
2022-08-07T16:56:08.868Z,0.80
2022-08-07T16:59:14.805Z,0.63
2022-08-07T17:01:57.244Z,1.20
2022-08-07T17:04:37.026Z,0.60
2022-08-07T17:07:28.542Z,0.70
2022-08-07T17:10:32.654Z,0.80
2022-08-07T17:13:08.556Z,0.63
2022-08-07T17:15:44.768Z,0.70
2022-08-07T17:18:29.259Z,0.73
2022-08-07T17:20:57.361Z,0.80
2022-08-07T17:23:41.263Z,0.80
2022-08-07T17:26:23.700Z,1.10
2022-08-07T17:30:13.037Z,0.80
2022-08-07T17:32:09.489Z,0.77
2022-08-07T17:35:51.368Z,0.77
2022-08-07T17:38:09.612Z,1.00
2022-08-07T17:42:02.490Z,0.68
2022-08-07T17:44:02.877Z,0.70
2022-08-07T17:46:40.903Z,1.00
2022-08-07T17:49:22.983Z,0.70
2022-08-07T17:52:00.535Z,0.65
2022-08-07T17:54:52.961Z,0.80
2022-08-07T17:57:56.345Z,0.90
2022-08-07T18:00:32.931Z,1.08
2022-08-07T18:03:09.444Z,1.00
2022-08-07T18:06:01.716Z,0.70
2022-08-07T18:08:33.767Z,0.80
2022-08-07T18:12:07.645Z,0.70
2022-08-07T18:14:05.707Z,0.90
2022-08-07T18:16:57.891Z,0.77
2022-08-07T18:21:08.598Z,0.70
2022-08-07T18:22:31.752Z,0.70
2022-08-07T18:25:24.131Z,0.90
2022-08-07T18:28:33.894Z,1.15
2022-08-07T18:31:07.525Z,0.80
2022-08-07T18:33:58.254Z,0.73
2022-08-07T18:36:40.834Z,0.82
2022-08-07T18:40:06.308Z,0.60
2022-08-07T18:42:17.278Z,0.90
2022-08-07T18:45:44.277Z,0.93
2022-08-07T18:48:00.945Z,0.82
2022-08-07T18:50:49.150Z,0.90
2022-08-07T18:53:36.512Z,0.93
2022-08-07T18:56:14.993Z,0.88
2022-08-07T18:59:00.805Z,0.90
2022-08-07T19:02:20.105Z,0.98
2022-08-07T19:04:54.648Z,1.17
2022-08-07T19:07:34.372Z,1.30
2022-08-07T19:10:10.937Z,1.33
2022-08-07T19:12:57.808Z,1.10
2022-08-07T19:16:03.407Z,1.10
2022-08-07T19:18:36.404Z,1.20
2022-08-07T19:21:44.336Z,1.10
2022-08-07T19:24:30.552Z,1.20
2022-08-07T19:28:38.251Z,1.10
2022-08-07T19:31:05.119Z,1.05
2022-08-07T19:32:46.678Z,1.13
2022-08-07T19:35:19.562Z,0.90
2022-08-07T19:37:58.155Z,1.13
2022-08-07T19:40:31.654Z,0.95
2022-08-07T19:43:08.317Z,1.10
2022-08-07T19:46:07.499Z,1.10
2022-08-07T19:48:42.634Z,1.17
2022-08-07T19:51:19.444Z,1.15
2022-08-07T19:54:34.578Z,1.00
2022-08-07T19:58:02.409Z,1.10
2022-08-07T19:59:40.897Z,1.17
2022-08-07T20:02:19.279Z,1.50
2022-08-07T20:04:52.037Z,1.10
2022-08-07T20:07:47.762Z,1.67
2022-08-07T20:10:38.176Z,1.27
2022-08-07T20:13:15.817Z,1.13
2022-08-07T20:15:52.094Z,1.33
2022-08-07T20:18:32.483Z,1.17
2022-08-07T20:21:21.455Z,1.17
2022-08-07T20:23:54.939Z,1.10
2022-08-07T20:26:38.532Z,1.00
2022-08-07T20:29:46.701Z,1.13
2022-08-07T20:31:58.518Z,1.00
2022-08-07T20:34:49.277Z,1.20
2022-08-07T20:37:23.356Z,1.30
2022-08-07T20:40:02.615Z,1.00
2022-08-07T20:42:38.410Z,1.10
2022-08-07T20:46:24.985Z,1.17
2022-08-07T20:48:02.119Z,1.00
2022-08-07T20:50:31.886Z,1.40
2022-08-07T20:53:00.359Z,1.48
2022-08-07T20:55:32.279Z,1.10
2022-08-07T20:58:08.994Z,1.27
2022-08-07T21:00:45.957Z,1.27
2022-08-07T21:03:19.197Z,1.25
2022-08-07T21:05:57.820Z,1.65
2022-08-07T21:08:36.769Z,1.40
2022-08-07T21:11:10.471Z,1.30
2022-08-07T21:14:20.305Z,1.08
2022-08-07T21:16:56.203Z,1.20
2022-08-07T21:19:32.490Z,1.33
2022-08-07T21:22:19.314Z,1.75
2022-08-07T21:24:56.774Z,1.20
2022-08-07T21:27:39.799Z,1.30
2022-08-07T21:30:12.358Z,1.30
2022-08-07T21:33:01.448Z,1.20
2022-08-07T21:36:05.301Z,1.23
2022-08-07T21:38:29.659Z,1.42
2022-08-07T21:41:06.944Z,1.20
2022-08-07T21:43:56.542Z,1.40
2022-08-07T21:46:36.283Z,1.30
2022-08-07T21:49:14.472Z,1.25
2022-08-07T21:51:59.447Z,1.25
2022-08-07T21:54:46.200Z,1.27
2022-08-07T21:57:39.852Z,1.48
2022-08-07T22:00:22.592Z,1.60
2022-08-07T22:03:00.004Z,1.30
2022-08-07T22:05:46.257Z,1.33
2022-08-07T22:08:19.788Z,1.48
2022-08-07T22:10:50.768Z,1.35
2022-08-07T22:13:24.560Z,1.42
2022-08-07T22:16:43.092Z,1.80
2022-08-07T22:19:08.166Z,1.15
2022-08-07T22:22:02.126Z,1.55
2022-08-07T22:24:35.323Z,1.52
2022-08-07T22:27:11.864Z,1.52
2022-08-07T22:29:48.372Z,1.65
2022-08-07T22:32:25.436Z,1.40
2022-08-07T22:34:57.222Z,1.65
2022-08-07T22:38:04.571Z,2.03
2022-08-07T22:40:30.728Z,1.65
2022-08-07T22:43:04.070Z,1.65
2022-08-07T22:46:40.793Z,1.50
2022-08-07T22:48:55.247Z,1.60
2022-08-07T22:51:51.839Z,1.52
2022-08-07T22:54:48.978Z,1.65
2022-08-07T22:57:41.573Z,1.88
2022-08-07T23:00:18.931Z,1.70
2022-08-07T23:03:09.339Z,1.42
2022-08-07T23:06:08.220Z,1.50
2022-08-07T23:08:58.559Z,1.70
2022-08-07T23:12:01.600Z,1.50
2022-08-07T23:14:47.466Z,1.70
2022-08-07T23:17:45.190Z,1.60
2022-08-07T23:20:52.827Z,1.67
2022-08-07T23:24:11.659Z,2.03
2022-08-07T23:26:57.120Z,1.45
2022-08-07T23:30:37.308Z,1.95
2022-08-07T23:34:35.327Z,1.90
2022-08-07T23:35:55.622Z,2.05
2022-08-07T23:38:36.606Z,1.80
2022-08-07T23:41:33.271Z,2.10
2022-08-07T23:44:29.571Z,1.58
2022-08-07T23:47:16.206Z,1.70
2022-08-07T23:49:59.900Z,1.65
2022-08-07T23:53:00.300Z,1.55
2022-08-07T23:55:53.069Z,1.60
2022-08-07T23:58:26.665Z,1.60
